Time;durP1;ratioP1;P1;durP2;ratioP2;P2;SDS_P1;SDS_P2;PMS_P1;PMS_P2;Temp;Humidity;BMP_temperature;BMP_pressure;BME280_temperature;BME280_humidity;BME280_pressure;Samples;Min_cycle;Max_cycle;Signal;HPM_P1;HPM_P2
2023/01/22 00:02:14;;;;;;;;;53.60;43.80;;;;;6.50;58.56;99329.06;6238679;28;96539;-63
2023/01/22 00:05:17;;;;;;;;;53.00;43.50;;;;;6.56;58.27;99327.47;6238981;28;96356;-63
2023/01/22 00:08:21;;;;;;;;;52.60;42.20;;;;;6.47;58.27;99332.94;6225885;27;96641;-62
2023/01/22 00:11:24;;;;;;;;;52.00;41.67;;;;;6.44;58.50;99332.50;6220273;27;96538;-66
2023/01/22 00:14:29;;;;;;;;;53.00;42.00;;;;;6.46;58.55;99335.78;6253784;27;96555;-63
2023/01/22 00:17:32;;;;;;;;;55.00;44.00;;;;;6.44;58.62;99341.34;6219242;28;96638;-62
2023/01/22 00:20:35;;;;;;;;;53.00;42.40;;;;;6.37;58.47;99348.44;6236328;28;97030;-62
2023/01/22 00:23:39;;;;;;;;;53.00;43.00;;;;;6.41;58.55;99348.91;6231464;28;96514;-63
2023/01/22 00:26:42;;;;;;;;;52.40;42.00;;;;;6.48;58.40;99342.66;6234470;27;97193;-63
2023/01/22 00:29:47;;;;;;;;;53.20;43.00;;;;;6.47;58.46;99342.81;6240906;27;97202;-63
2023/01/22 00:32:50;;;;;;;;;51.80;41.00;;;;;6.47;58.28;99349.00;6226979;28;96693;-63
2023/01/22 00:35:54;;;;;;;;;52.00;41.25;;;;;6.49;58.06;99348.84;6237269;28;96473;-65
2023/01/22 00:38:57;;;;;;;;;52.60;41.00;;;;;6.45;57.82;99348.34;6237944;28;96480;-63
2023/01/22 00:42:01;;;;;;;;;54.20;42.20;;;;;6.53;57.80;99350.97;6219913;28;96411;-64
2023/01/22 00:45:07;;;;;;;;;50.60;39.00;;;;;6.56;57.64;99340.88;6219221;28;96169;-63
2023/01/22 00:48:10;;;;;;;;;49.80;41.00;;;;;6.51;57.63;99338.75;6225749;27;96838;-62
2023/01/22 00:51:14;;;;;;;;;49.00;40.00;;;;;6.58;57.36;99346.88;6234090;27;96157;-62
2023/01/22 00:54:18;;;;;;;;;47.60;39.00;;;;;6.59;57.26;99349.41;6228211;27;96189;-64
2023/01/22 00:57:21;;;;;;;;;50.40;40.40;;;;;6.60;57.36;99345.69;6226723;28;96652;-63
2023/01/22 01:00:26;;;;;;;;;50.20;40.00;;;;;6.57;57.02;99345.22;6219195;28;96657;-63
2023/01/22 01:03:32;;;;;;;;;50.00;40.50;;;;;6.57;56.71;99346.06;6236838;28;96414;-64
2023/01/22 01:06:35;;;;;;;;;50.00;41.00;;;;;6.47;56.97;99342.81;6227324;27;96261;-64
2023/01/22 01:09:39;;;;;;;;;49.40;39.80;;;;;6.40;57.30;99349.94;6224559;28;96570;-63
2023/01/22 01:12:42;;;;;;;;;50.00;41.00;;;;;6.39;57.28;99345.59;6236835;28;96467;-63
2023/01/22 01:15:47;;;;;;;;;54.50;43.75;;;;;6.41;57.25;99348.91;6238712;28;96286;-64
2023/01/22 01:18:51;;;;;;;;;51.20;40.20;;;;;6.42;57.27;99339.88;6220508;28;96350;-63
2023/01/22 01:21:54;;;;;;;;;45.80;36.80;;;;;6.40;56.95;99347.28;6252962;27;96541;-63
2023/01/22 01:24:58;;;;;;;;;45.00;36.00;;;;;6.38;56.58;99351.97;6239089;27;96847;-63
2023/01/22 01:28:04;;;;;;;;;47.40;38.80;;;;;6.36;57.05;99372.72;6252280;27;96906;-63
2023/01/22 01:31:11;;;;;;;;;45.60;37.00;;;;;6.29;57.01;99385.19;6240469;27;96798;-62
2023/01/22 01:34:14;;;;;;;;;47.80;36.00;;;;;6.26;57.15;99380.19;6243459;27;96260;-62
2023/01/22 01:37:18;;;;;;;;;49.00;39.50;;;;;6.18;57.52;99378.44;6243343;27;96404;-64
2023/01/22 01:40:21;;;;;;;;;43.00;37.00;;;;;5.78;58.61;99389.44;6219451;27;97441;-63
2023/01/22 01:43:25;;;;;;;;;45.80;37.40;;;;;5.66;59.03;99394.41;6238457;27;96505;-62
2023/01/22 01:46:30;;;;;;;;;45.00;37.60;;;;;5.45;59.48;99408.41;6220440;28;96373;-62
2023/01/22 01:49:42;;;;;;;;;46.75;37.00;;;;;5.45;59.83;99403.03;6217971;28;96704;-62
2023/01/22 01:52:45;;;;;;;;;46.60;38.00;;;;;5.39;60.25;99405.59;6243091;27;97110;-63
2023/01/22 01:55:49;;;;;;;;;46.00;38.00;;;;;5.43;60.35;99398.88;6222934;28;96275;-63
2023/01/22 01:58:57;;;;;;;;;50.20;38.80;;;;;5.40;60.68;99404.56;6229065;28;96329;-63
2023/01/22 02:02:03;;;;;;;;;46.00;39.00;;;;;5.45;60.30;99400.38;6237740;28;96485;-62
2023/01/22 02:05:08;;;;;;;;;48.50;38.50;;;;;5.50;60.04;99405.19;6219264;28;96607;-62
2023/01/22 02:08:11;;;;;;;;;47.20;37.20;;;;;5.59;59.82;99406.81;6235782;28;96449;-62
2023/01/22 02:11:16;;;;;;;;;46.80;38.00;;;;;5.65;59.51;99409.59;6252966;27;96349;-62
2023/01/22 02:14:24;;;;;;;;;45.00;37.00;;;;;5.59;59.85;99410.31;6237245;27;96120;-62
2023/01/22 02:17:29;;;;;;;;;46.00;36.00;;;;;5.71;59.72;99400.03;6252597;27;96330;-63
2023/01/22 02:20:36;;;;;;;;;40.80;33.40;;;;;5.82;59.48;99401.44;6219243;28;96359;-64
2023/01/22 02:23:42;;;;;;;;;46.33;35.00;;;;;5.88;59.14;99396.25;6219490;28;97095;-63
2023/01/22 02:26:46;;;;;;;;;44.60;35.60;;;;;5.97;58.54;99389.81;6225630;28;96519;-62
2023/01/22 02:29:53;;;;;;;;;42.00;33.00;;;;;6.05;58.21;99394.28;6221972;28;96383;-62
2023/01/22 02:32:57;;;;;;;;;40.00;35.00;;;;;6.08;58.16;99386.72;6231188;27;96418;-62
2023/01/22 02:36:02;;;;;;;;;40.00;34.00;;;;;6.16;58.26;99388.47;6223796;28;96065;-64
2023/01/22 02:39:06;;;;;;;;;38.40;33.00;;;;;6.19;57.64;99379.28;6226266;27;98537;-62
2023/01/22 02:42:09;;;;;;;;;37.00;32.75;;;;;6.15;57.64;99383.31;6241313;28;96228;-62
2023/01/22 02:45:15;;;;;;;;;37.80;33.00;;;;;6.14;57.82;99392.38;6234542;27;96448;-62
2023/01/22 02:48:19;;;;;;;;;43.80;35.00;;;;;6.14;57.70;99378.97;6235097;27;97016;-63
2023/01/22 02:51:25;;;;;;;;;38.00;33.00;;;;;6.09;57.88;99385.72;6210649;27;96289;-62
2023/01/22 02:54:29;;;;;;;;;39.60;33.60;;;;;6.14;57.63;99387.00;6237953;28;97107;-63
2023/01/22 02:57:32;;;;;;;;;37.40;32.80;;;;;6.08;57.73;99388.56;6222437;27;96540;-64
2023/01/22 03:00:36;;;;;;;;;40.50;33.75;;;;;6.08;57.71;99392.06;6224023;27;96680;-63
2023/01/22 03:03:39;;;;;;;;;37.80;33.00;;;;;6.08;57.47;99394.75;6222930;28;96486;-63
2023/01/22 03:06:46;;;;;;;;;37.00;32.00;;;;;6.08;57.32;99399.28;6222958;28;96747;-64
2023/01/22 03:09:49;;;;;;;;;36.00;31.20;;;;;6.03;57.53;99397.13;6239112;27;96385;-63
2023/01/22 03:22:56;;;;;;;;;30.50;28.50;;;;;6.12;56.79;99410.44;6223020;27;96333;-64
2023/01/22 03:26:00;;;;;;;;;34.40;28.00;;;;;5.76;56.63;99370.06;6240665;27;96292;-64
2023/01/22 03:29:03;;;;;;;;;32.20;29.00;;;;;6.12;56.88;99413.94;6246535;27;96205;-62
2023/01/22 03:32:07;;;;;;;;;28.25;27.25;;;;;5.92;56.86;99408.25;6241789;27;96618;-63
2023/01/22 03:35:12;;;;;;;;;33.50;30.00;;;;;5.98;57.10;99410.22;6223275;28;96648;-62
2023/01/22 03:38:31;;;;;;;;;36.33;31.67;;;;;5.97;57.37;99407.72;6200891;28;96183;-62
2023/01/22 03:41:36;;;;;;;;;29.80;26.80;;;;;6.07;57.11;99408.31;6232903;27;96483;-62
2023/01/22 03:44:40;;;;;;;;;27.00;25.50;;;;;5.91;57.10;99401.25;6204129;28;96799;-62
2023/01/22 03:47:44;;;;;;;;;33.00;28.00;;;;;5.93;57.14;99404.56;6250886;27;96921;-63
2023/01/22 03:50:57;;;;;;;;;34.60;30.00;;;;;6.02;57.23;99403.50;6229077;27;96366;-63
2023/01/22 03:54:02;;;;;;;;;29.20;27.00;;;;;5.96;57.21;99398.06;6223355;27;96377;-62
2023/01/22 03:57:05;;;;;;;;;25.00;24.00;;;;;6.01;57.28;99407.19;6249673;27;96514;-63
2023/01/22 04:00:13;;;;;;;;;29.60;27.00;;;;;5.91;57.47;99414.63;6253199;27;96614;-63
2023/01/22 04:03:18;;;;;;;;;34.40;30.60;;;;;5.80;57.73;99406.16;6213653;28;96428;-64
2023/01/22 04:06:22;;;;;;;;;29.00;27.25;;;;;5.82;57.74;99414.81;6224958;27;96369;-62
2023/01/22 04:09:26;;;;;;;;;28.67;25.67;;;;;5.85;57.90;99414.50;6246339;27;97038;-62
2023/01/22 04:12:32;;;;;;;;;30.60;27.00;;;;;5.81;58.11;99418.53;6221789;28;96334;-64
2023/01/22 04:15:35;;;;;;;;;27.00;25.00;;;;;5.86;57.82;99421.50;6226649;27;96463;-63
2023/01/22 04:18:48;;;;;;;;;27.50;26.00;;;;;5.83;58.05;99416.50;6236920;28;98665;-62
2023/01/22 04:22:11;;;;;;;;;31.40;25.40;;;;;5.75;58.08;99414.72;6238459;27;96843;-62
2023/01/22 04:25:17;;;;;;;;;27.00;25.40;;;;;5.76;58.37;99416.41;6251020;27;96570;-62
2023/01/22 04:28:21;;;;;;;;;25.40;24.40;;;;;5.55;58.38;99400.97;6240743;27;96645;-63
2023/01/22 04:31:28;;;;;;;;;28.00;26.00;;;;;5.61;58.63;99402.94;6226552;28;96259;-62
2023/01/22 04:34:50;;;;;;;;;29.40;26.00;;;;;5.60;58.47;99400.44;6248609;27;96780;-62
2023/01/22 04:38:12;;;;;;;;;30.20;25.20;;;;;5.70;58.66;99410.91;6206526;27;96616;-62
2023/01/22 04:41:18;;;;;;;;;23.60;22.60;;;;;5.68;58.78;99408.41;6226438;28;96242;-64
2023/01/22 04:44:22;;;;;;;;;29.50;26.50;;;;;5.58;58.77;99414.00;6232578;27;96407;-64
2023/01/22 04:47:25;;;;;;;;;28.40;25.40;;;;;5.57;58.91;99423.00;6217877;28;97799;-63
2023/01/22 04:50:32;;;;;;;;;28.00;26.00;;;;;5.61;59.05;99412.81;6233346;27;96225;-63
2023/01/22 04:53:35;;;;;;;;;28.25;26.00;;;;;5.61;59.35;99405.63;6217849;27;96812;-63
2023/01/22 04:56:42;;;;;;;;;26.00;24.50;;;;;5.61;59.37;99410.13;6201663;28;98863;-63
2023/01/22 04:59:46;;;;;;;;;26.75;24.00;;;;;5.63;59.20;99405.44;6213212;27;96554;-64
2023/01/22 05:02:49;;;;;;;;;26.60;23.60;;;;;5.68;59.22;99416.44;6219260;27;96813;-62
2023/01/22 05:05:52;;;;;;;;;24.40;22.40;;;;;5.61;59.42;99410.97;6224665;27;97285;-63
2023/01/22 05:08:57;;;;;;;;;22.20;21.20;;;;;5.75;59.20;99414.72;6221444;28;96966;-64
2023/01/22 05:12:02;;;;;;;;;21.00;20.00;;;;;5.80;59.05;99411.50;6251817;27;96317;-64
2023/01/22 05:15:13;;;;;;;;;28.00;26.00;;;;;5.84;58.69;99419.00;6236707;27;96396;-63
2023/01/22 05:18:28;;;;;;;;;27.00;24.80;;;;;5.79;58.93;99421.38;6243533;27;99062;-63
2023/01/22 05:21:33;;;;;;;;;23.00;21.00;;;;;5.85;58.79;99419.84;6242060;27;96918;-64
2023/01/22 05:24:36;;;;;;;;;23.40;21.00;;;;;5.88;58.80;99409.63;6214554;27;96562;-64
2023/01/22 05:27:41;;;;;;;;;21.60;21.00;;;;;5.84;58.75;99424.34;6216648;28;97490;-64
2023/01/22 05:30:50;;;;;;;;;24.60;20.60;;;;;5.69;59.14;99434.16;6214746;28;97122;-64
2023/01/22 05:34:09;;;;;;;;;18.25;16.25;;;;;5.59;59.46;99431.72;6231982;27;96484;-62
2023/01/22 05:37:13;;;;;;;;;26.40;23.00;;;;;5.65;59.40;99438.19;6217505;28;97157;-63
2023/01/22 05:40:17;;;;;;;;;24.75;22.00;;;;;5.79;59.19;99458.00;6217315;28;96346;-62
2023/01/22 05:43:23;;;;;;;;;20.20;19.40;;;;;5.56;59.51;99460.66;6215128;28;96423;-62
2023/01/22 05:46:32;;;;;;;;;20.00;19.40;;;;;5.71;59.41;99460.75;6210537;28;96548;-63
2023/01/22 05:49:45;;;;;;;;;23.00;22.25;;;;;5.60;59.59;99453.94;6226679;27;97650;-63
2023/01/22 05:52:54;;;;;;;;;25.40;22.80;;;;;5.72;59.33;99457.88;6219369;28;97463;-63
2023/01/22 05:56:01;;;;;;;;;21.60;20.00;;;;;5.84;59.42;99471.69;6230629;27;96970;-64
2023/01/22 05:59:11;;;;;;;;;22.40;22.00;;;;;5.87;59.29;99471.34;6217153;28;96918;-63
2023/01/22 06:02:16;;;;;;;;;21.75;20.00;;;;;5.85;59.39;99474.19;6215972;28;96909;-63
2023/01/22 06:05:20;;;;;;;;;24.00;21.40;;;;;5.75;59.40;99457.53;6205227;28;96338;-64
2023/01/22 06:08:32;;;;;;;;;21.20;19.40;;;;;5.84;59.52;99463.66;6217694;28;96168;-63
2023/01/22 06:11:36;;;;;;;;;23.00;21.00;;;;;5.71;59.49;99452.72;6231325;27;96604;-63
2023/01/22 06:14:41;;;;;;;;;21.00;18.25;;;;;5.84;59.74;99467.16;6214508;28;96420;-63
2023/01/22 06:17:46;;;;;;;;;23.40;21.40;;;;;5.82;60.07;99471.00;6213096;28;96532;-63
2023/01/22 06:20:50;;;;;;;;;19.60;17.60;;;;;5.76;59.92;99472.59;6212876;28;97046;-63
2023/01/22 06:23:54;;;;;;;;;18.00;18.00;;;;;5.81;60.18;99480.91;6212207;28;96424;-62
2023/01/22 06:26:57;;;;;;;;;22.67;20.33;;;;;5.84;60.18;99477.03;6214536;28;96477;-63
2023/01/22 06:30:13;;;;;;;;;19.40;17.40;;;;;5.83;60.07;99478.88;6215357;28;96221;-63
2023/01/22 06:33:16;;;;;;;;;20.00;18.00;;;;;5.78;60.61;99475.06;6217084;28;96784;-63
2023/01/22 06:36:19;;;;;;;;;20.80;19.00;;;;;5.90;60.01;99484.41;6227024;27;96542;-63
2023/01/22 06:39:23;;;;;;;;;20.00;17.40;;;;;5.91;59.91;99481.53;6226352;28;97117;-63
2023/01/22 06:42:37;;;;;;;;;22.25;19.25;;;;;5.96;59.82;99481.00;6214590;28;97233;-63
2023/01/22 06:45:43;;;;;;;;;21.60;17.60;;;;;5.88;60.09;99478.38;6211762;28;97282;-63
2023/01/22 06:48:46;;;;;;;;;19.00;17.50;;;;;5.66;60.28;99483.50;6217889;27;96963;-63
2023/01/22 06:51:52;;;;;;;;;23.00;21.00;;;;;5.81;60.33;99477.41;6233317;27;96441;-64
2023/01/22 06:54:55;;;;;;;;;25.00;22.00;;;;;5.79;60.40;99469.53;6216862;28;96859;-62
2023/01/22 06:58:01;;;;;;;;;20.40;18.60;;;;;5.90;60.46;99481.72;6205843;28;96958;-62
2023/01/22 07:01:06;;;;;;;;;18.00;16.75;;;;;5.82;60.26;99471.84;6234769;27;96627;-62
2023/01/22 07:04:09;;;;;;;;;17.00;16.00;;;;;5.68;60.25;99486.81;6232703;28;97055;-62
2023/01/22 07:07:13;;;;;;;;;20.00;16.80;;;;;5.69;60.95;99484.97;6205805;28;96803;-62
2023/01/22 07:10:17;;;;;;;;;18.00;17.00;;;;;5.52;61.34;99494.91;6227560;28;96984;-62
2023/01/22 07:13:21;;;;;;;;;19.00;18.00;;;;;5.58;60.99;99510.28;6231989;27;96496;-62
2023/01/22 07:16:26;;;;;;;;;18.25;17.25;;;;;5.43;61.56;99517.38;6213343;28;96889;-63
2023/01/22 07:19:29;;;;;;;;;20.00;18.20;;;;;5.33;61.85;99535.44;6226027;28;96648;-63
2023/01/22 07:22:32;;;;;;;;;19.40;18.00;;;;;5.38;62.05;99530.41;6236183;28;96231;-62
2023/01/22 07:25:35;;;;;;;;;13.40;12.00;;;;;5.47;62.12;99531.25;6237536;28;96804;-64
2023/01/22 07:28:39;;;;;;;;;17.00;14.60;;;;;5.58;62.01;99542.38;6236430;27;96338;-63
2023/01/22 07:31:46;;;;;;;;;16.80;15.80;;;;;5.46;61.93;99527.72;6234645;28;96445;-64
2023/01/22 07:34:52;;;;;;;;;20.00;19.00;;;;;5.62;62.27;99526.81;6221272;28;97171;-62
2023/01/22 07:37:56;;;;;;;;;22.00;19.00;;;;;5.73;61.61;99529.09;6229082;27;99078;-63
2023/01/22 07:41:01;;;;;;;;;18.00;16.40;;;;;5.73;61.15;99522.91;6237005;28;96297;-63
2023/01/22 07:44:07;;;;;;;;;19.00;16.00;;;;;5.81;61.28;99526.41;6237824;27;97010;-63
2023/01/22 07:47:11;;;;;;;;;17.60;16.60;;;;;5.83;61.22;99531.56;6237851;28;96449;-63
2023/01/22 07:50:15;;;;;;;;;17.80;15.00;;;;;5.86;61.28;99529.38;6227029;28;96921;-64
2023/01/22 07:53:19;;;;;;;;;18.00;15.60;;;;;5.86;61.08;99529.38;6234451;27;97610;-63
2023/01/22 07:56:22;;;;;;;;;18.00;15.75;;;;;5.89;61.07;99533.56;6220336;28;96969;-62
2023/01/22 07:59:26;;;;;;;;;14.20;13.00;;;;;5.92;61.12;99535.88;6236151;27;96447;-62
2023/01/22 08:02:31;;;;;;;;;17.00;16.00;;;;;5.95;60.94;99547.09;6240149;27;96622;-63
2023/01/22 08:05:34;;;;;;;;;15.50;13.50;;;;;5.92;60.88;99538.56;6238512;28;96149;-63
2023/01/22 08:08:38;;;;;;;;;17.00;16.00;;;;;6.04;60.84;99532.63;6236021;27;96262;-62
2023/01/22 08:11:42;;;;;;;;;18.00;17.00;;;;;6.07;60.66;99542.16;6234496;28;96847;-62
2023/01/22 08:14:45;;;;;;;;;18.00;16.00;;;;;6.10;60.39;99536.47;6232470;27;96233;-64
2023/01/22 08:17:51;;;;;;;;;22.00;20.00;;;;;6.20;60.29;99554.97;6233190;27;96519;-64
2023/01/22 08:20:54;;;;;;;;;18.50;17.00;;;;;6.18;60.36;99554.31;6233152;27;96328;-61
2023/01/22 08:23:57;;;;;;;;;24.00;20.00;;;;;6.16;60.20;99553.66;6235238;28;97176;-65
2023/01/22 08:27:01;;;;;;;;;22.25;19.75;;;;;6.14;60.31;99551.16;6232012;27;96821;-62
2023/01/22 08:30:06;;;;;;;;;21.60;19.60;;;;;6.09;60.54;99551.69;6213097;28;97243;-62
2023/01/22 08:33:11;;;;;;;;;21.50;19.50;;;;;6.13;60.50;99552.16;6236843;28;96845;-62
2023/01/22 08:36:15;;;;;;;;;23.50;21.50;;;;;6.17;60.63;99556.13;6233904;28;96264;-63
2023/01/22 08:39:18;;;;;;;;;23.50;21.50;;;;;6.23;60.27;99558.13;6220166;28;96890;-63
2023/01/22 08:42:21;;;;;;;;;20.40;18.00;;;;;6.24;60.24;99561.63;6236269;28;97054;-64
2023/01/22 08:45:24;;;;;;;;;23.60;22.00;;;;;6.24;60.23;99556.28;6236324;27;96683;-64
2023/01/22 08:48:29;;;;;;;;;23.50;22.25;;;;;6.07;60.25;99545.66;6242187;27;96553;-64
2023/01/22 08:51:33;;;;;;;;;22.80;20.00;;;;;6.16;60.24;99542.94;6237407;28;96356;-64
2023/01/22 08:54:36;;;;;;;;;19.60;18.60;;;;;6.25;60.42;99558.78;6234899;27;97031;-65
2023/01/22 08:57:40;;;;;;;;;19.00;18.60;;;;;6.27;60.54;99562.09;6233852;27;96798;-63
2023/01/22 09:00:44;;;;;;;;;22.00;20.00;;;;;6.20;60.43;99565.69;6231767;27;96490;-62
2023/01/22 09:03:49;;;;;;;;;23.50;20.00;;;;;6.21;60.51;99565.47;6216276;28;96627;-63
2023/01/22 09:06:52;;;;;;;;;28.60;25.00;;;;;6.09;60.89;99566.91;6237639;28;96061;-62
2023/01/22 09:09:56;;;;;;;;;24.00;22.00;;;;;6.11;60.85;99570.22;6236900;28;97836;-63
2023/01/22 09:12:59;;;;;;;;;19.40;17.40;;;;;6.25;60.65;99568.66;6216055;27;97269;-62
2023/01/22 09:16:04;;;;;;;;;22.75;20.75;;;;;6.38;60.61;99568.91;6208303;28;97526;-65
2023/01/22 09:19:11;;;;;;;;;24.00;21.20;;;;;6.48;60.15;99577.53;6215969;28;96483;-63
2023/01/22 09:22:14;;;;;;;;;23.00;21.00;;;;;6.53;60.13;99577.81;6204409;27;96875;-63
2023/01/22 09:25:18;;;;;;;;;18.40;18.40;;;;;6.60;59.84;99581.44;6233201;27;96562;-64
2023/01/22 09:28:21;;;;;;;;;21.25;19.00;;;;;6.63;59.49;99561.50;6236132;27;96407;-63
2023/01/22 09:31:24;;;;;;;;;22.80;18.80;;;;;6.66;59.23;99574.53;6232273;27;96561;-62
2023/01/22 09:34:29;;;;;;;;;20.60;19.40;;;;;6.55;59.56;99572.28;6227996;28;96470;-63
2023/01/22 09:37:32;;;;;;;;;20.00;18.00;;;;;6.50;59.89;99567.44;6226618;27;96891;-62
2023/01/22 09:40:43;;;;;;;;;23.40;21.40;;;;;6.37;60.56;99565.38;6226078;27;96522;-63
2023/01/22 09:43:52;;;;;;;;;21.00;20.00;;;;;6.50;59.94;99560.25;6232538;27;96899;-63
2023/01/22 09:47:00;;;;;;;;;22.00;22.00;;;;;6.63;59.74;99553.47;6233794;28;96749;-62
2023/01/22 09:50:07;;;;;;;;;24.75;23.00;;;;;6.74;59.48;99553.03;6209376;28;96657;-64
2023/01/22 09:53:16;;;;;;;;;19.00;16.80;;;;;6.78;59.11;99555.19;6231433;27;97473;-62
2023/01/22 09:56:22;;;;;;;;;23.00;20.60;;;;;6.86;58.98;99549.72;6228623;27;96556;-63
2023/01/22 09:59:27;;;;;;;;;24.00;19.00;;;;;6.68;59.12;99545.72;6234696;27;96504;-62
2023/01/22 10:02:36;;;;;;;;;20.00;19.00;;;;;6.69;59.55;99576.88;6229682;28;96717;-64
2023/01/22 10:05:43;;;;;;;;;21.00;19.50;;;;;6.72;59.84;99555.91;6229980;28;96382;-63
2023/01/22 10:09:09;;;;;;;;;21.00;19.00;;;;;6.62;59.84;99558.00;6227169;27;97002;-63
2023/01/22 10:12:13;;;;;;;;;24.40;21.00;;;;;6.70;59.76;99562.44;6243871;27;96947;-63
2023/01/22 10:15:20;;;;;;;;;23.00;23.00;;;;;6.67;59.71;99566.31;6228488;27;97417;-63
2023/01/22 10:18:34;;;;;;;;;24.00;22.75;;;;;6.67;60.35;99571.69;6232161;28;96347;-65
2023/01/22 10:21:47;;;;;;;;;26.60;23.60;;;;;6.63;59.96;99569.53;6233456;27;96557;-62
2023/01/22 10:24:51;;;;;;;;;24.00;22.00;;;;;6.60;60.44;99548.47;6213202;28;96997;-62
2023/01/22 10:27:59;;;;;;;;;20.25;18.00;;;;;6.79;60.03;99569.41;6233324;27;96596;-65
2023/01/22 10:31:03;;;;;;;;;26.80;23.00;;;;;6.89;59.66;99567.31;6244601;27;97264;-65
2023/01/22 10:34:13;;;;;;;;;28.00;24.00;;;;;6.93;59.44;99566.78;6233757;27;96901;-65
2023/01/22 10:37:18;;;;;;;;;24.00;22.00;;;;;6.78;59.77;99571.25;6232543;28;96504;-63
2023/01/22 10:40:25;;;;;;;;;27.00;24.00;;;;;6.73;60.02;99570.97;6214161;28;96561;-63
2023/01/22 10:43:33;;;;;;;;;20.00;18.00;;;;;6.63;60.24;99567.69;6235468;27;96743;-64
2023/01/22 10:46:37;;;;;;;;;25.80;21.80;;;;;6.51;60.55;99577.16;6233887;28;96432;-64
2023/01/22 10:49:40;;;;;;;;;27.00;23.00;;;;;6.51;61.09;99579.84;6235012;28;96881;-62
2023/01/22 10:52:50;;;;;;;;;24.40;22.00;;;;;6.53;61.22;99570.63;6235221;27;96445;-63
2023/01/22 10:55:55;;;;;;;;;24.75;20.75;;;;;6.71;60.90;99583.69;6241475;27;97911;-62
2023/01/22 10:59:00;;;;;;;;;22.50;20.50;;;;;6.73;60.91;99576.31;6230265;28;96230;-63
2023/01/22 11:02:13;;;;;;;;;23.75;21.75;;;;;6.85;60.70;99574.03;6218117;28;96649;-63
2023/01/22 11:05:19;;;;;;;;;22.75;21.00;;;;;6.95;60.25;99583.50;6236137;27;96227;-62
2023/01/22 11:08:29;;;;;;;;;19.50;17.50;;;;;6.86;60.47;99575.69;6236443;28;96612;-64
2023/01/22 11:11:38;;;;;;;;;24.40;22.40;;;;;6.61;61.45;99568.88;6203513;28;98298;-63
2023/01/22 11:14:42;;;;;;;;;24.00;21.00;;;;;6.73;61.37;99568.28;6231795;27;96419;-63
2023/01/22 11:17:50;;;;;;;;;23.00;22.00;;;;;6.79;61.39;99567.53;6236820;28;96378;-64
2023/01/22 11:20:56;;;;;;;;;21.00;19.25;;;;;6.83;61.56;99560.84;6235905;28;97323;-64
2023/01/22 11:24:07;;;;;;;;;23.80;21.00;;;;;6.72;61.89;99563.94;6231680;27;96963;-65
2023/01/22 11:27:25;;;;;;;;;19.60;17.60;;;;;6.54;62.22;99542.00;6214775;28;96620;-64
2023/01/22 11:31:00;;;;;;;;;23.00;21.00;;;;;6.73;62.19;99557.56;6233157;28;96527;-63
2023/01/22 11:34:19;;;;;;;;;23.60;20.00;;;;;6.75;62.07;99560.88;6209504;28;97432;-64
2023/01/22 11:37:48;;;;;;;;;27.00;24.80;;;;;6.82;62.05;99569.03;6230824;27;96704;-63
2023/01/22 11:41:16;;;;;;;;;24.00;22.00;;;;;6.87;61.86;99562.13;6235457;27;96606;-65
2023/01/22 11:44:39;;;;;;;;;31.60;27.40;;;;;6.96;61.72;99566.41;6209178;28;96429;-63
2023/01/22 11:48:21;;;;;;;;;26.00;23.50;;;;;6.92;61.69;99565.09;6236208;27;97422;-62
2023/01/22 11:51:33;;;;;;;;;25.60;21.00;;;;;7.05;61.35;99579.72;6208640;28;96389;-65
2023/01/22 11:54:53;;;;;;;;;25.60;23.20;;;;;6.99;61.57;99575.91;6235724;28;96246;-64
2023/01/22 11:58:07;;;;;;;;;29.00;25.40;;;;;6.95;61.73;99563.88;6236514;28;97015;-62
2023/01/22 12:01:19;;;;;;;;;28.00;25.00;;;;;6.92;62.15;99575.81;6237417;27;96224;-63
2023/01/22 12:04:46;;;;;;;;;21.75;20.00;;;;;6.84;62.18;99594.63;6231082;28;96217;-62
2023/01/22 12:08:11;;;;;;;;;28.00;24.00;;;;;6.74;62.37;99574.47;6234714;27;96954;-62
2023/01/22 12:11:33;;;;;;;;;27.60;24.60;;;;;6.77;62.32;99568.75;6235872;28;97054;-62
2023/01/22 12:14:53;;;;;;;;;24.20;22.40;;;;;6.84;62.43;99578.56;6231147;27;96458;-66
2023/01/22 12:18:20;;;;;;;;;32.00;26.20;;;;;6.84;62.63;99573.19;6217292;28;96925;-62
2023/01/22 12:21:38;;;;;;;;;28.50;26.00;;;;;6.88;62.70;99589.78;6235592;27;96639;-62
2023/01/22 12:24:47;;;;;;;;;26.00;22.50;;;;;6.77;62.71;99595.56;6232898;27;96563;-63
2023/01/22 12:27:57;;;;;;;;;27.50;25.50;;;;;6.59;63.44;99587.84;6238828;27;96602;-64
2023/01/22 12:31:08;;;;;;;;;28.60;25.40;;;;;6.70;63.28;99592.75;6228592;28;96332;-64
2023/01/22 12:34:17;;;;;;;;;27.60;24.00;;;;;6.73;63.50;99583.53;6236687;28;96256;-63
2023/01/22 12:37:25;;;;;;;;;28.40;25.40;;;;;6.67;63.02;99560.97;6238969;27;96567;-63
2023/01/22 12:40:58;;;;;;;;;28.67;23.67;;;;;6.75;63.27;99585.00;6230269;28;97025;-64
2023/01/22 12:44:10;;;;;;;;;25.80;23.20;;;;;6.94;63.08;99587.19;6235555;27;96296;-64
2023/01/22 12:47:21;;;;;;;;;30.00;27.00;;;;;6.99;62.51;99602.72;6235370;28;96195;-65
2023/01/22 12:50:26;;;;;;;;;31.00;25.00;;;;;6.99;62.69;99594.69;6234520;28;96553;-64
2023/01/22 12:53:33;;;;;;;;;32.00;28.75;;;;;7.01;62.75;99594.50;6232524;27;96923;-61
2023/01/22 12:56:37;;;;;;;;;32.00;27.00;;;;;7.07;62.59;99604.50;6201027;28;96953;-65
2023/01/22 12:59:45;;;;;;;;;31.50;28.75;;;;;7.14;62.30;99602.75;6183994;28;97190;-63
2023/01/22 13:02:50;;;;;;;;;28.00;25.67;;;;;7.18;62.25;99612.13;6169773;28;96444;-63
2023/01/22 13:05:54;;;;;;;;;29.40;27.00;;;;;7.12;62.32;99608.31;6185330;28;97949;-64
2023/01/22 13:08:57;;;;;;;;;36.00;30.00;;;;;7.21;62.13;99611.75;6179899;28;96331;-63
2023/01/22 13:12:08;;;;;;;;;30.20;27.00;;;;;7.19;62.08;99621.81;6174993;28;97231;-64
2023/01/22 13:15:17;;;;;;;;;32.40;28.40;;;;;7.27;61.95;99624.44;6177631;28;97144;-64
2023/01/22 13:18:24;;;;;;;;;31.60;30.00;;;;;7.29;61.93;99625.06;6177975;28;96393;-62
2023/01/22 13:21:30;;;;;;;;;35.00;29.33;;;;;7.34;61.55;99638.75;6183957;28;96389;-62
2023/01/22 13:24:33;;;;;;;;;34.80;30.00;;;;;7.37;61.14;99638.41;6184919;28;96129;-62
2023/01/22 13:27:37;;;;;;;;;35.00;30.00;;;;;7.34;61.38;99642.28;6173184;28;96543;-63
2023/01/22 13:30:40;;;;;;;;;32.60;30.60;;;;;7.26;61.56;99639.69;6169120;28;96803;-63
2023/01/22 13:33:55;;;;;;;;;33.00;30.00;;;;;7.27;61.83;99635.16;6181510;28;96792;-62
2023/01/22 13:36:58;;;;;;;;;31.40;28.60;;;;;7.34;61.59;99647.66;6176120;28;96665;-64
2023/01/22 13:40:11;;;;;;;;;32.00;27.80;;;;;7.29;61.39;99647.34;6185969;28;96807;-64
2023/01/22 13:43:18;;;;;;;;;30.60;28.20;;;;;7.35;61.23;99635.06;6193207;28;97356;-62
2023/01/22 13:46:22;;;;;;;;;31.00;26.00;;;;;7.36;61.32;99639.44;6183507;28;96811;-63
2023/01/22 13:49:28;;;;;;;;;32.00;28.40;;;;;7.34;61.38;99642.28;6178200;28;96675;-63
2023/01/22 13:52:32;;;;;;;;;28.75;26.75;;;;;7.46;61.21;99636.47;6184008;28;96692;-63
2023/01/22 13:55:35;;;;;;;;;31.00;27.00;;;;;7.55;60.76;99644.25;6195491;28;96226;-63
2023/01/22 13:58:40;;;;;;;;;33.40;29.40;;;;;7.66;60.54;99648.34;6215414;28;97200;-63
2023/01/22 14:01:52;;;;;;;;;30.60;27.00;;;;;7.73;60.36;99651.94;6230592;28;96792;-64
2023/01/22 14:04:57;;;;;;;;;27.00;23.00;;;;;7.82;60.05;99650.81;6234684;27;96609;-63
2023/01/22 14:08:06;;;;;;;;;28.20;25.20;;;;;7.81;59.83;99654.56;6230627;27;97017;-65
2023/01/22 14:11:09;;;;;;;;;31.00;27.50;;;;;7.77;59.71;99664.81;6230250;27;96993;-63
2023/01/22 14:14:17;;;;;;;;;34.50;28.00;;;;;7.69;59.87;99672.94;6232630;28;97635;-63
2023/01/22 14:17:22;;;;;;;;;30.00;28.60;;;;;7.49;60.62;99681.72;6231105;28;96676;-63
2023/01/22 14:20:27;;;;;;;;;32.60;27.40;;;;;7.54;60.72;99682.84;6233135;28;96793;-65
2023/01/22 14:23:31;;;;;;;;;33.60;29.00;;;;;7.46;60.86;99688.28;6233339;28;96345;-65
2023/01/22 14:26:34;;;;;;;;;29.40;27.20;;;;;7.38;61.36;99701.75;6232712;27;96630;-65
2023/01/22 14:29:37;;;;;;;;;31.25;27.00;;;;;7.37;61.37;99695.59;6230045;28;96566;-64
2023/01/22 14:32:41;;;;;;;;;29.00;27.00;;;;;7.40;61.43;99703.25;6226293;28;96857;-65
2023/01/22 14:35:46;;;;;;;;;31.40;29.00;;;;;7.47;61.43;99705.22;6223813;27;96120;-64
2023/01/22 14:38:52;;;;;;;;;32.50;27.50;;;;;7.40;61.38;99703.25;6226934;28;96634;-63